Time;durP1;ratioP1;P1;durP2;ratioP2;P2;SDS_P1;SDS_P2;PMS_P1;PMS_P2;Temp;Humidity;BMP_temperature;BMP_pressure;BME280_temperature;BME280_humidity;BME280_pressure;Samples;Min_cycle;Max_cycle;Signal;HPM_P1;HPM_P2
2021/10/03 00:01:41;;;;;;;25.00;18.50;;;;;;;11.78;84.84;100811.10;93822;1196;98040;-68
2021/10/03 00:03:49;;;;;;;23.60;18.70;;;;;;;11.78;84.86;100810.22;93838;1196;87146;-69
2021/10/03 00:05:59;;;;;;;23.60;18.60;;;;;;;11.77;84.82;100806.50;93749;1196;94548;-66
2021/10/03 00:08:05;;;;;;;24.90;19.10;;;;;;;11.76;84.89;100807.66;93760;1196;80230;-68
2021/10/03 00:10:11;;;;;;;24.10;18.30;;;;;;;11.77;84.92;100811.40;93842;1196;81046;-70
2021/10/03 00:12:16;;;;;;;24.20;20.10;;;;;;;11.76;84.98;100810.87;93848;1195;99632;-69
2021/10/03 00:14:23;;;;;;;22.90;19.10;;;;;;;11.73;84.98;100811.98;93836;1196;86361;-73
2021/10/03 00:16:28;;;;;;;23.20;17.60;;;;;;;11.70;84.87;100813.73;93772;1196;94635;-67
2021/10/03 00:18:34;;;;;;;23.00;19.30;;;;;;;11.67;84.98;100812.20;93857;1195;81461;-70
2021/10/03 00:20:40;;;;;;;22.60;18.90;;;;;;;11.65;85.05;100817.33;93917;1195;80822;-67
2021/10/03 00:22:44;;;;;;;23.20;18.70;;;;;;;11.64;85.03;100814.54;93837;1196;98091;-70
2021/10/03 00:24:48;;;;;;;27.30;17.80;;;;;;;11.63;85.14;100816.00;93840;1197;87943;-68
2021/10/03 00:26:53;;;;;;;22.00;18.20;;;;;;;11.60;85.14;100820.42;93857;1196;93150;-68
2021/10/03 00:29:00;;;;;;;23.00;18.60;;;;;;;11.61;85.19;100820.96;93837;1196;77990;-69
2021/10/03 00:31:04;;;;;;;24.50;18.80;;;;;;;11.58;85.16;100822.68;93851;1196;80488;-70
2021/10/03 00:33:12;;;;;;;21.60;17.70;;;;;;;11.56;85.17;100823.99;93799;1195;99919;-70
2021/10/03 00:35:17;;;;;;;22.40;18.70;;;;;;;11.52;85.20;100827.51;93833;1196;89449;-70
2021/10/03 00:37:24;;;;;;;25.90;18.40;;;;;;;11.53;85.35;100827.89;93793;1196;93186;-69
2021/10/03 00:39:28;;;;;;;25.00;18.40;;;;;;;11.53;85.28;100827.69;93827;1196;80547;-70
2021/10/03 00:41:32;;;;;;;23.20;18.50;;;;;;;11.52;85.30;100829.20;93822;1196;81506;-71
2021/10/03 00:43:37;;;;;;;23.60;18.80;;;;;;;11.51;85.26;100828.84;93882;1196;99164;-69
2021/10/03 00:45:43;;;;;;;24.90;18.30;;;;;;;11.47;85.29;100829.05;93751;1196;86692;-69
2021/10/03 00:47:47;;;;;;;22.30;18.20;;;;;;;11.46;85.26;100828.31;93899;1197;95545;-69
2021/10/03 00:49:52;;;;;;;22.10;17.20;;;;;;;11.46;85.40;100829.80;93833;1195;80038;-70
2021/10/03 00:51:56;;;;;;;23.20;18.60;;;;;;;11.45;85.34;100834.02;93889;1196;80391;-69
2021/10/03 00:54:00;;;;;;;23.40;19.00;;;;;;;11.45;85.34;100834.02;93845;1196;98714;-69
2021/10/03 00:56:05;;;;;;;23.10;18.50;;;;;;;11.44;85.41;100829.66;93807;1195;86242;-68
2021/10/03 00:58:11;;;;;;;22.90;18.60;;;;;;;11.43;85.34;100832.55;93869;1196;92695;-69
2021/10/03 01:00:19;;;;;;;22.10;17.10;;;;;;;11.40;85.28;100827.65;93845;1196;80428;-69
2021/10/03 01:02:24;;;;;;;20.50;18.00;;;;;;;11.41;85.28;100830.20;93847;1195;80940;-67
2021/10/03 01:04:28;;;;;;;21.30;18.70;;;;;;;11.40;85.37;100823.90;93891;1196;99678;-68
2021/10/03 01:06:32;;;;;;;22.50;18.90;;;;;;;11.39;85.40;100826.46;93866;1196;86988;-69
2021/10/03 01:08:36;;;;;;;21.60;18.50;;;;;;;11.36;85.46;100819.84;93848;1196;94121;-70
2021/10/03 01:10:41;;;;;;;22.90;19.00;;;;;;;11.33;85.36;100816.75;93792;1196;80721;-69
2021/10/03 01:12:45;;;;;;;20.80;18.60;;;;;;;11.34;85.40;100819.77;93868;1197;81843;-70
2021/10/03 01:14:49;;;;;;;21.50;17.70;;;;;;;11.31;85.44;100820.26;93817;1196;100023;-70
2021/10/03 01:16:56;;;;;;;26.30;19.70;;;;;;;11.28;85.49;100820.59;93837;1196;87629;-70
2021/10/03 01:19:01;;;;;;;23.50;19.30;;;;;;;11.27;85.45;100817.80;93873;1196;92717;-70
2021/10/03 01:21:08;;;;;;;22.70;18.90;;;;;;;11.25;85.46;100815.38;93717;1196;79962;-69
2021/10/03 01:23:13;;;;;;;26.70;19.40;;;;;;;11.23;85.54;100817.80;93807;1196;82188;-69
2021/10/03 01:25:19;;;;;;;23.60;18.50;;;;;;;11.18;85.57;100818.85;93878;1195;98932;-70
2021/10/03 01:27:26;;;;;;;25.30;19.60;;;;;;;11.18;85.64;100815.67;93789;1195;88475;-70
2021/10/03 01:29:34;;;;;;;29.10;19.50;;;;;;;11.18;85.56;100819.39;93800;1196;93980;-70
2021/10/03 01:31:38;;;;;;;26.70;19.20;;;;;;;11.17;85.65;100810.74;93801;1195;79540;-67
2021/10/03 01:33:42;;;;;;;25.10;18.90;;;;;;;11.16;85.71;100811.19;93847;1195;80562;-68
2021/10/03 01:35:47;;;;;;;24.10;19.50;;;;;;;11.13;85.78;100809.56;93853;1196;99511;-70
2021/10/03 01:37:52;;;;;;;23.20;18.30;;;;;;;11.09;85.75;100806.41;93889;1195;87532;-69
2021/10/03 01:39:57;;;;;;;24.40;18.60;;;;;;;11.05;85.76;100800.95;93864;1196;94834;-68
2021/10/03 01:42:01;;;;;;;22.70;18.70;;;;;;;11.04;85.79;100796.65;93814;1197;80088;-69
2021/10/03 01:44:06;;;;;;;23.60;19.00;;;;;;;11.03;85.86;100796.96;93875;1196;82235;-68
2021/10/03 01:46:12;;;;;;;25.00;19.30;;;;;;;11.03;85.92;100794.71;93901;1196;99811;-70
2021/10/03 01:48:19;;;;;;;24.10;19.30;;;;;;;11.03;85.84;100794.80;93812;1195;86554;-69
2021/10/03 01:50:23;;;;;;;23.30;18.40;;;;;;;11.00;85.88;100796.16;93677;1196;93650;-69
2021/10/03 01:52:31;;;;;;;26.00;19.50;;;;;;;10.97;85.95;100796.43;93788;1197;81170;-68
2021/10/03 01:54:35;;;;;;;21.40;18.20;;;;;;;10.92;85.97;100794.07;93784;1195;82486;-68
2021/10/03 01:56:40;;;;;;;26.50;20.30;;;;;;;10.92;85.97;100789.71;93788;1196;99704;-70
2021/10/03 01:58:49;;;;;;;23.70;19.70;;;;;;;10.93;86.01;100785.47;93744;1196;88652;-70
2021/10/03 02:01:00;;;;;;;25.20;19.50;;;;;;;10.88;86.01;100785.02;93757;1196;93790;-69
2021/10/03 02:03:08;;;;;;;26.10;20.70;;;;;;;10.86;86.08;100780.81;93730;1196;80885;-70
2021/10/03 02:05:13;;;;;;;24.20;18.80;;;;;;;10.86;86.11;100778.79;93762;1196;80713;-67
2021/10/03 02:07:20;;;;;;;23.50;18.90;;;;;;;10.84;86.24;100781.04;93653;1196;100320;-68
2021/10/03 02:09:27;;;;;;;26.40;18.80;;;;;;;10.81;86.29;100775.79;93770;1196;87605;-68
2021/10/03 02:11:31;;;;;;;24.40;19.40;;;;;;;10.82;86.23;100781.84;93768;1196;93079;-69
2021/10/03 02:13:36;;;;;;;25.50;18.90;;;;;;;10.81;86.26;100781.36;93799;1196;78507;-69
2021/10/03 02:15:43;;;;;;;21.80;18.90;;;;;;;10.80;86.34;100778.34;93806;1196;81797;-72
2021/10/03 02:17:48;;;;;;;22.10;18.90;;;;;;;10.77;86.24;100778.26;93833;1196;100380;-69
2021/10/03 02:19:53;;;;;;;24.90;18.60;;;;;;;10.73;86.27;100778.52;93799;1196;86756;-69
2021/10/03 02:21:58;;;;;;;24.90;18.90;;;;;;;10.74;86.25;100778.03;93838;1196;92923;-68
2021/10/03 02:24:03;;;;;;;27.60;21.10;;;;;;;10.74;86.26;100781.11;93826;1196;79431;-69
2021/10/03 02:26:07;;;;;;;24.60;19.10;;;;;;;10.71;86.36;100782.80;93818;1196;80248;-71
2021/10/03 02:28:16;;;;;;;25.40;18.80;;;;;;;10.70;86.38;100778.20;93827;1196;98414;-70
2021/10/03 02:30:20;;;;;;;24.50;18.10;;;;;;;10.67;86.38;100778.48;93811;1195;87813;-70
2021/10/03 02:32:24;;;;;;;24.20;18.60;;;;;;;10.64;86.37;100778.36;93757;1195;94846;-71
2021/10/03 02:34:28;;;;;;;25.80;19.70;;;;;;;10.63;86.38;100777.38;93764;1196;79314;-69
2021/10/03 02:36:33;;;;;;;22.30;18.40;;;;;;;10.64;86.48;100777.98;93736;1196;81623;-69
2021/10/03 02:38:39;;;;;;;22.40;18.20;;;;;;;10.64;86.43;100774.61;93707;1196;98830;-71
2021/10/03 02:40:46;;;;;;;23.40;17.80;;;;;;;10.64;86.44;100773.99;93744;1196;86523;-70
2021/10/03 02:42:50;;;;;;;24.20;19.20;;;;;;;10.62;86.61;100772.99;93803;1196;92198;-70
2021/10/03 02:44:57;;;;;;;24.40;18.60;;;;;;;10.60;86.49;100769.94;93744;1196;78711;-68
2021/10/03 02:47:02;;;;;;;24.00;17.80;;;;;;;10.59;86.55;100770.42;93807;1196;82077;-68
2021/10/03 02:49:09;;;;;;;21.10;17.90;;;;;;;10.59;86.49;100771.70;93778;1196;98398;-69
2021/10/03 02:51:13;;;;;;;23.80;17.90;;;;;;;10.61;86.45;100774.05;93774;1196;87137;-68
2021/10/03 02:53:20;;;;;;;21.80;18.90;;;;;;;10.60;86.45;100773.59;93740;1195;94417;-68
2021/10/03 02:55:25;;;;;;;23.70;19.40;;;;;;;10.59;86.65;100770.16;93752;1196;78128;-70
2021/10/03 02:57:29;;;;;;;22.20;18.70;;;;;;;10.54;86.65;100768.38;93695;1196;80890;-70
2021/10/03 02:59:34;;;;;;;23.80;17.70;;;;;;;10.53;86.65;100768.71;93701;1196;100041;-70
2021/10/03 03:01:38;;;;;;;22.10;17.60;;;;;;;10.52;86.61;100768.79;93744;1196;87092;-70
2021/10/03 03:03:42;;;;;;;23.00;18.00;;;;;;;10.53;86.62;100769.94;93718;1196;94432;-70
2021/10/03 03:05:48;;;;;;;22.90;17.40;;;;;;;10.54;86.66;100768.07;93712;1196;79193;-68
2021/10/03 03:07:52;;;;;;;22.90;17.90;;;;;;;10.53;86.70;100772.88;93760;1195;82666;-68
2021/10/03 03:09:57;;;;;;;22.70;17.00;;;;;;;10.52;86.58;100772.45;93780;1196;97776;-68
2021/10/03 03:12:01;;;;;;;20.10;16.60;;;;;;;10.52;86.53;100770.96;93782;1196;86236;-68
2021/10/03 03:14:05;;;;;;;20.80;16.90;;;;;;;10.52;86.56;100769.00;93811;1195;93073;-68
2021/10/03 03:16:09;;;;;;;20.90;17.60;;;;;;;10.49;86.64;100773.43;93794;1195;78732;-69
2021/10/03 03:18:13;;;;;;;21.80;18.10;;;;;;;10.48;86.74;100770.20;93819;1195;80026;-71
2021/10/03 03:20:18;;;;;;;21.60;16.80;;;;;;;10.46;86.75;100766.95;93823;1196;98689;-68
2021/10/03 03:22:26;;;;;;;20.70;16.80;;;;;;;10.45;86.71;100767.72;93838;1196;87860;-67
2021/10/03 03:24:30;;;;;;;23.30;17.30;;;;;;;10.42;86.74;100768.15;93833;1196;96084;-68
2021/10/03 03:26:38;;;;;;;21.80;18.20;;;;;;;10.41;86.87;100765.48;93798;1196;80784;-68
2021/10/03 03:28:42;;;;;;;23.20;17.70;;;;;;;10.42;86.79;100769.33;93835;1196;80693;-68
2021/10/03 03:30:50;;;;;;;20.20;17.10;;;;;;;10.41;86.91;100764.96;93804;1196;98677;-70
2021/10/03 03:32:54;;;;;;;21.80;17.10;;;;;;;10.41;86.86;100767.38;93820;1196;86119;-70
2021/10/03 03:34:58;;;;;;;25.70;17.30;;;;;;;10.39;86.87;100767.08;93832;1195;92906;-69
2021/10/03 03:37:03;;;;;;;21.10;17.50;;;;;;;10.38;86.84;100766.98;93814;1196;80557;-68
2021/10/03 03:39:07;;;;;;;20.80;17.10;;;;;;;10.38;86.81;100767.19;93857;1196;79765;-67
2021/10/03 03:41:12;;;;;;;24.00;18.10;;;;;;;10.39;86.83;100767.36;93821;1196;100189;-70
2021/10/03 03:43:17;;;;;;;21.00;17.80;;;;;;;10.38;86.85;100767.15;93832;1196;88689;-69
2021/10/03 03:45:21;;;;;;;22.80;17.70;;;;;;;10.37;86.82;100763.73;93798;1196;93045;-70
2021/10/03 03:47:25;;;;;;;23.20;17.30;;;;;;;10.36;86.90;100766.06;93807;1195;79865;-69
2021/10/03 03:49:29;;;;;;;22.70;17.10;;;;;;;10.34;86.80;100764.42;93830;1195;80690;-71
2021/10/03 03:51:34;;;;;;;20.20;16.80;;;;;;;10.33;86.86;100764.91;93755;1195;100736;-70
2021/10/03 03:53:38;;;;;;;21.50;18.00;;;;;;;10.33;86.99;100766.93;93809;1196;88482;-70
2021/10/03 03:55:45;;;;;;;21.00;16.80;;;;;;;10.31;86.94;100764.85;93777;1196;94504;-68
2021/10/03 03:57:51;;;;;;;22.80;17.70;;;;;;;10.28;86.99;100766.12;93755;1196;80799;-68
2021/10/03 03:59:55;;;;;;;21.70;16.60;;;;;;;10.24;86.91;100766.67;93775;1196;79978;-69
2021/10/03 04:01:59;;;;;;;20.50;15.70;;;;;;;10.24;86.88;100759.69;93738;1195;99580;-68
2021/10/03 04:04:07;;;;;;;21.60;17.00;;;;;;;10.24;86.90;100760.98;93784;1195;87508;-67
2021/10/03 04:06:11;;;;;;;23.10;17.30;;;;;;;10.24;86.82;100762.90;93741;1196;93980;-68
2021/10/03 04:08:16;;;;;;;24.10;17.00;;;;;;;10.22;86.84;100765.52;93675;1196;80507;-67
2021/10/03 04:10:24;;;;;;;20.70;17.60;;;;;;;10.22;86.82;100766.63;93761;1196;80412;-70
2021/10/03 04:12:28;;;;;;;21.60;16.80;;;;;;;10.20;86.86;100759.65;93757;1195;98958;-71
2021/10/03 04:14:32;;;;;;;21.80;17.30;;;;;;;10.20;86.95;100756.21;93797;1196;87903;-70
2021/10/03 04:16:36;;;;;;;23.60;18.70;;;;;;;10.21;86.93;100759.21;93708;1196;94490;-68
2021/10/03 04:18:40;;;;;;;22.50;17.00;;;;;;;10.19;86.93;100757.13;93763;1195;81214;-69
2021/10/03 04:20:45;;;;;;;20.50;16.60;;;;;;;10.16;86.98;100754.92;93749;1195;81570;-68
2021/10/03 04:22:49;;;;;;;24.20;18.10;;;;;;;10.12;87.10;100753.74;93776;1195;100285;-68
2021/10/03 04:24:53;;;;;;;19.20;16.50;;;;;;;10.12;87.01;100755.20;93807;1196;87988;-71
2021/10/03 04:26:57;;;;;;;21.40;17.70;;;;;;;10.09;87.19;100749.48;93798;1196;93648;-69
2021/10/03 04:29:01;;;;;;;23.00;17.70;;;;;;;10.09;87.19;100750.58;93770;1196;80929;-69
2021/10/03 04:31:06;;;;;;;22.00;17.00;;;;;;;10.09;87.19;100752.73;93758;1196;80763;-68
2021/10/03 04:33:10;;;;;;;22.10;17.00;;;;;;;10.10;87.17;100755.73;93758;1196;100456;-68
2021/10/03 04:35:14;;;;;;;23.40;17.80;;;;;;;10.14;87.21;100758.98;93782;1196;88804;-71
2021/10/03 04:37:18;;;;;;;19.80;17.20;;;;;;;10.11;87.19;100756.39;93738;1196;93340;-69
2021/10/03 04:39:23;;;;;;;22.20;17.20;;;;;;;10.11;87.19;100752.63;93780;1196;79827;-70
2021/10/03 04:41:27;;;;;;;23.70;17.50;;;;;;;10.12;87.11;100750.47;93763;1196;81887;-70
2021/10/03 04:43:32;;;;;;;22.80;17.40;;;;;;;10.10;87.12;100749.30;93784;1196;98555;-71
2021/10/03 04:45:42;;;;;;;21.00;17.00;;;;;;;10.10;87.15;100751.78;93800;1196;88160;-69
2021/10/03 04:47:46;;;;;;;21.40;17.80;;;;;;;10.07;87.18;100753.11;93738;1196;93752;-70
2021/10/03 04:49:53;;;;;;;22.80;18.50;;;;;;;10.10;87.12;100752.12;93671;1196;81130;-68
2021/10/03 04:51:57;;;;;;;20.00;16.60;;;;;;;10.11;87.01;100751.88;93758;1196;80469;-69
2021/10/03 04:54:04;;;;;;;24.00;17.50;;;;;;;10.13;86.93;100751.30;93677;1196;99296;-68
2021/10/03 04:56:09;;;;;;;20.60;18.00;;;;;;;10.14;86.96;100750.08;93643;1196;88036;-69
2021/10/03 04:58:17;;;;;;;20.00;16.50;;;;;;;10.17;86.94;100757.28;93651;1196;94161;-68
2021/10/03 05:00:21;;;;;;;21.20;17.20;;;;;;;10.20;86.93;100760.77;93648;1196;78967;-70
2021/10/03 05:02:25;;;;;;;26.80;17.10;;;;;;;10.19;86.98;100760.88;93625;1196;81326;-70
2021/10/03 05:04:29;;;;;;;22.70;17.90;;;;;;;10.20;86.85;100767.98;93727;1196;100015;-71
2021/10/03 05:06:36;;;;;;;23.20;17.40;;;;;;;10.17;86.81;100771.02;93758;1196;88844;-69
2021/10/03 05:08:40;;;;;;;18.80;16.60;;;;;;;10.17;86.90;100769.05;93751;1196;94505;-68
2021/10/03 05:10:48;;;;;;;24.60;17.30;;;;;;;10.17;87.00;100770.02;93781;1195;79721;-69
2021/10/03 05:12:52;;;;;;;23.20;16.90;;;;;;;10.18;86.97;100769.93;93854;1196;81239;-69
2021/10/03 05:14:56;;;;;;;21.30;16.80;;;;;;;10.21;86.97;100771.92;93807;1195;99238;-69
2021/10/03 05:17:00;;;;;;;21.00;16.90;;;;;;;10.30;86.95;100777.42;93764;1196;87239;-70
2021/10/03 05:19:05;;;;;;;21.20;17.30;;;;;;;10.36;86.89;100784.60;93830;1195;94178;-70
2021/10/03 05:21:10;;;;;;;22.80;17.50;;;;;;;10.38;86.83;100782.52;93708;1196;81212;-68
2021/10/03 05:23:14;;;;;;;19.10;16.60;;;;;;;10.46;86.71;100783.41;93700;1198;81275;-67
2021/10/03 05:25:22;;;;;;;19.20;16.50;;;;;;;10.48;86.75;100782.96;93714;1196;96972;-69
2021/10/03 05:27:28;;;;;;;21.10;16.60;;;;;;;10.53;86.78;100779.45;93690;1196;87083;-69
2021/10/03 05:29:32;;;;;;;20.20;16.10;;;;;;;10.63;86.81;100777.80;93692;1196;93282;-70
2021/10/03 05:31:37;;;;;;;21.10;16.80;;;;;;;10.77;86.74;100779.84;93658;1196;78003;-68
2021/10/03 05:33:41;;;;;;;22.60;17.40;;;;;;;10.83;86.58;100776.08;93770;1196;81111;-69
2021/10/03 05:35:45;;;;;;;22.20;17.00;;;;;;;10.92;86.65;100778.48;93838;1195;99941;-69
2021/10/03 05:37:50;;;;;;;22.80;17.90;;;;;;;10.99;86.52;100779.92;93779;1196;85528;-70
2021/10/03 05:39:55;;;;;;;19.00;16.50;;;;;;;11.06;86.44;100773.52;93695;1196;94667;-68
2021/10/03 05:42:00;;;;;;;21.80;17.20;;;;;;;11.11;86.47;100771.55;93802;1195;79840;-69
2021/10/03 05:44:05;;;;;;;21.20;17.20;;;;;;;11.19;86.35;100771.83;93800;1195;81624;-68
2021/10/03 05:46:13;;;;;;;19.60;16.80;;;;;;;11.31;86.39;100770.86;93842;1195;98345;-70
2021/10/03 05:48:21;;;;;;;19.10;16.30;;;;;;;11.45;86.43;100772.16;93765;1196;87204;-70
2021/10/03 05:50:25;;;;;;;20.10;16.60;;;;;;;11.51;86.14;100770.67;93832;1196;93307;-70
2021/10/03 05:52:29;;;;;;;20.40;15.60;;;;;;;11.55;85.91;100767.92;93790;1196;79731;-70
2021/10/03 05:54:33;;;;;;;19.60;15.60;;;;;;;11.51;85.78;100770.88;93799;1195;80510;-71
2021/10/03 05:56:38;;;;;;;21.30;16.30;;;;;;;11.47;85.66;100767.11;93768;1196;100177;-74
2021/10/03 05:58:45;;;;;;;19.60;15.40;;;;;;;11.41;85.61;100767.67;93791;1196;86511;-75
2021/10/03 06:00:49;;;;;;;19.00;15.90;;;;;;;11.41;85.44;100766.02;93674;1196;93732;-70
2021/10/03 06:02:53;;;;;;;19.60;15.60;;;;;;;11.52;85.63;100760.11;93833;1195;80542;-71
2021/10/03 06:04:57;;;;;;;18.60;15.70;;;;;;;11.57;85.52;100756.30;93805;1196;81200;-71
2021/10/03 06:07:05;;;;;;;21.90;17.50;;;;;;;11.55;85.42;100758.48;93839;1196;100381;-73
2021/10/03 06:09:09;;;;;;;19.40;16.00;;;;;;;11.57;85.27;100756.23;93752;1196;87849;-70
2021/10/03 06:11:13;;;;;;;22.10;16.00;;;;;;;11.59;85.32;100757.71;93797;1195;94389;-71
2021/10/03 06:13:18;;;;;;;18.10;15.60;;;;;;;11.55;85.25;100762.27;93772;1190;79887;-70
2021/10/03 06:15:22;;;;;;;20.40;15.30;;;;;;;11.58;85.14;100760.95;93785;1196;80676;-69
2021/10/03 06:17:27;;;;;;;69.40;49.70;;;;;;;11.58;85.11;100761.23;93786;1195;99755;-70
2021/10/03 06:19:31;;;;;;;76.10;61.60;;;;;;;11.61;85.15;100764.20;93815;1196;86974;-71
2021/10/03 06:21:35;;;;;;;28.30;22.00;;;;;;;11.72;85.18;100767.95;93729;1196;94416;-70
2021/10/03 06:23:41;;;;;;;20.70;16.60;;;;;;;11.85;85.14;100766.03;93757;1195;81333;-70
2021/10/03 06:25:45;;;;;;;19.30;15.80;;;;;;;12.00;85.18;100765.07;93812;1196;81478;-70
2021/10/03 06:27:53;;;;;;;19.80;15.50;;;;;;;12.14;85.18;100764.86;93750;1196;97656;-70
2021/10/03 06:29:57;;;;;;;18.70;16.10;;;;;;;12.30;85.03;100761.59;93859;1196;88268;-73
2021/10/03 06:32:01;;;;;;;20.40;15.60;;;;;;;12.46;84.73;100761.02;93759;1196;93751;-73
2021/10/03 06:34:05;;;;;;;18.40;16.30;;;;;;;12.57;84.45;100763.75;93749;1196;79845;-73
2021/10/03 06:36:12;;;;;;;17.40;15.50;;;;;;;12.70;84.37;100764.46;93746;1196;81345;-71
2021/10/03 06:38:16;;;;;;;18.00;15.60;;;;;;;12.82;84.20;100759.77;93790;1196;97098;-71
2021/10/03 06:40:21;;;;;;;18.20;15.80;;;;;;;12.94;84.05;100761.72;93753;1196;87821;-73
2021/10/03 06:42:25;;;;;;;16.60;14.70;;;;;;;13.02;83.74;100760.29;93779;1195;93390;-72
2021/10/03 06:44:30;;;;;;;16.50;14.40;;;;;;;13.04;83.64;100758.10;93788;1196;80058;-72
2021/10/03 06:46:34;;;;;;;17.70;14.80;;;;;;;13.03;83.31;100761.77;93798;1196;82319;-73
2021/10/03 06:48:39;;;;;;;18.30;15.10;;;;;;;12.99;83.25;100760.56;93789;1196;99466;-73
2021/10/03 06:50:43;;;;;;;19.90;16.30;;;;;;;13.00;83.11;100763.61;93787;1196;87134;-72
2021/10/03 06:52:48;;;;;;;16.50;14.10;;;;;;;12.93;82.67;100764.55;93783;1196;94784;-72
2021/10/03 06:54:52;;;;;;;18.50;14.10;;;;;;;12.96;82.84;100767.45;93737;1195;81076;-72
2021/10/03 06:56:56;;;;;;;15.00;13.40;;;;;;;13.02;82.71;100769.38;93807;1196;81751;-72
2021/10/03 06:59:00;;;;;;;16.50;14.00;;;;;;;13.02;82.55;100770.80;93766;1196;99426;-73
2021/10/03 07:01:05;;;;;;;17.20;14.40;;;;;;;13.10;82.54;100774.55;93789;1196;87885;-72
2021/10/03 07:03:09;;;;;;;16.20;14.00;;;;;;;13.11;82.47;100773.83;93804;1196;93152;-75
2021/10/03 07:05:16;;;;;;;18.20;14.90;;;;;;;13.18;82.47;100774.80;93815;1196;80061;-80
2021/10/03 07:07:21;;;;;;;15.80;13.20;;;;;;;13.25;82.33;100777.83;93782;1196;81938;-78
2021/10/03 07:09:29;;;;;;;16.80;14.00;;;;;;;13.24;82.19;100778.84;93783;1196;99061;-74
2021/10/03 07:11:33;;;;;;;16.00;13.40;;;;;;;13.26;82.18;100783.83;93783;1196;87413;-75
2021/10/03 07:13:38;;;;;;;15.60;13.90;;;;;;;13.35;82.19;100780.65;93753;1195;94468;-74
2021/10/03 07:15:45;;;;;;;17.70;14.10;;;;;;;13.42;82.08;100782.99;93772;1196;79342;-73
2021/10/03 07:17:50;;;;;;;15.50;13.10;;;;;;;13.54;81.90;100784.29;93783;1196;80600;-71
2021/10/03 07:19:54;;;;;;;16.40;13.50;;;;;;;13.66;81.70;100781.55;93795;1196;100005;-69
2021/10/03 07:22:01;;;;;;;15.50;13.80;;;;;;;13.79;81.52;100778.45;93817;1196;87963;-70
2021/10/03 07:24:06;;;;;;;17.30;13.60;;;;;;;14.02;81.55;100776.17;93756;1196;92882;-71
2021/10/03 07:26:11;;;;;;;17.40;14.00;;;;;;;14.09;81.25;100776.80;93770;1195;78252;-71
2021/10/03 07:28:15;;;;;;;18.20;13.30;;;;;;;14.11;81.08;100776.90;93800;1196;81180;-71
2021/10/03 07:30:19;;;;;;;16.30;13.10;;;;;;;14.12;80.90;100778.02;93782;1196;98905;-70
2021/10/03 07:32:27;;;;;;;18.50;13.80;;;;;;;14.16;80.70;100779.21;93837;1196;88689;-71
2021/10/03 07:34:31;;;;;;;17.90;13.80;;;;;;;14.30;80.71;100771.32;93816;1195;94488;-72
2021/10/03 07:36:37;;;;;;;15.00;13.30;;;;;;;14.41;80.50;100773.59;93802;1196;79364;-70
2021/10/03 07:38:41;;;;;;;14.50;12.90;;;;;;;14.77;80.54;100778.56;93756;1196;81017;-71
2021/10/03 07:40:48;;;;;;;17.40;13.70;;;;;;;15.27;80.56;100783.78;93784;1196;98649;-72
2021/10/03 07:42:56;;;;;;;15.90;13.40;;;;;;;15.69;80.38;100783.36;93842;1196;87359;-72
2021/10/03 07:45:00;;;;;;;14.80;13.20;;;;;;;15.75;79.60;100782.35;93660;1198;93066;-71
2021/10/03 07:47:05;;;;;;;15.00;12.40;;;;;;;15.70;79.27;100779.41;93746;1196;78098;-71
2021/10/03 07:49:09;;;;;;;16.90;13.20;;;;;;;15.53;78.63;100777.29;93786;1196;82988;-72
2021/10/03 07:51:14;;;;;;;15.00;13.50;;;;;;;15.41;78.50;100773.49;93807;1196;98346;-70
2021/10/03 07:53:18;;;;;;;16.70;13.40;;;;;;;15.22;78.03;100771.92;93804;1195;87034;-72
2021/10/03 07:55:28;;;;;;;17.10;12.90;;;;;;;15.32;78.23;100771.04;93806;1196;93927;-72
2021/10/03 07:57:35;;;;;;;15.10;13.60;;;;;;;15.75;78.34;100777.44;93802;1196;79477;-72
2021/10/03 07:59:40;;;;;;;13.90;12.10;;;;;;;16.85;78.82;100768.70;93832;1196;81511;-74
2021/10/03 08:01:47;;;;;;;13.80;12.50;;;;;;;18.61;77.63;100762.34;93804;1196;99470;-71
2021/10/03 08:03:51;;;;;;;14.60;12.50;;;;;;;20.30;75.90;100762.65;93882;1196;87706;-75
2021/10/03 08:05:55;;;;;;;13.80;11.50;;;;;;;21.80;73.90;100762.17;93806;1196;93409;-76
2021/10/03 08:08:01;;;;;;;13.70;11.00;;;;;;;22.99;71.33;100762.12;93878;1196;79784;-71
2021/10/03 08:10:07;;;;;;;12.60;10.80;;;;;;;23.88;69.02;100763.90;93881;1196;81578;-73
2021/10/03 08:12:14;;;;;;;14.00;11.40;;;;;;;24.71;67.68;100759.44;93921;1195;98749;-71
2021/10/03 08:14:19;;;;;;;12.10;10.80;;;;;;;25.48;65.78;100756.89;93855;1195;87489;-72
2021/10/03 08:16:26;;;;;;;11.80;10.60;;;;;;;25.91;63.47;100751.43;93815;1196;94079;-72
2021/10/03 08:18:30;;;;;;;11.30;10.10;;;;;;;26.39;61.51;100751.98;93853;1196;78373;-73
2021/10/03 08:20:40;;;;;;;13.80;12.30;;;;;;;26.27;60.19;100750.20;93846;1196;81217;-72
2021/10/03 08:22:44;;;;;;;12.30;10.70;;;;;;;26.54;59.38;100746.30;93851;1196;98843;-72
2021/10/03 08:24:48;;;;;;;11.20;10.10;;;;;;;26.73;57.78;100748.36;93878;1195;87071;-71
2021/10/03 08:26:53;;;;;;;10.20;9.20;;;;;;;27.04;56.86;100746.08;93846;1195;93962;-73
2021/10/03 08:28:58;;;;;;;9.70;8.80;;;;;;;27.31;55.98;100746.07;93844;1196;78649;-73
2021/10/03 08:31:02;;;;;;;14.30;10.30;;;;;;;27.36;55.11;100742.09;93812;1196;81731;-71
2021/10/03 08:33:06;;;;;;;10.30;9.30;;;;;;;27.50;54.88;100738.97;93805;1196;99660;-72
2021/10/03 08:35:15;;;;;;;11.30;10.10;;;;;;;27.41;52.96;100736.83;93835;1195;87414;-72
2021/10/03 08:37:19;;;;;;;11.20;10.00;;;;;;;27.25;52.64;100741.02;93820;1196;92597;-72
2021/10/03 08:39:23;;;;;;;10.20;9.30;;;;;;;27.16;52.51;100739.89;93863;1196;79893;-72
2021/10/03 08:41:27;;;;;;;10.70;8.80;;;;;;;26.91;51.85;100733.52;93863;1196;80505;-72
2021/10/03 08:43:36;;;;;;;10.40;9.40;;;;;;;26.99;51.72;100732.27;93860;1195;99130;-73
2021/10/03 08:45:45;;;;;;;11.10;9.50;;;;;;;27.18;50.98;100731.81;93886;1195;87896;-71
2021/10/03 08:47:50;;;;;;;10.90;9.00;;;;;;;27.31;50.75;100732.54;93845;1196;94182;-72
2021/10/03 08:49:54;;;;;;;10.50;9.50;;;;;;;27.50;51.06;100733.13;93817;1195;78751;-73
2021/10/03 08:52:02;;;;;;;9.50;8.40;;;;;;;27.78;50.58;100731.91;93819;1196;81191;-73
2021/10/03 08:54:06;;;;;;;10.70;8.50;;;;;;;27.97;49.81;100729.08;93763;1196;99745;-72
2021/10/03 08:56:11;;;;;;;9.70;8.40;;;;;;;27.68;49.41;100722.27;93867;1195;87971;-73
2021/10/03 08:58:16;;;;;;;9.20;8.20;;;;;;;27.82;49.29;100727.52;93827;1196;93539;-75
2021/10/03 09:00:23;;;;;;;10.70;8.80;;;;;;;27.84;48.71;100725.27;93866;1196;79578;-72
2021/10/03 09:02:27;;;;;;;9.10;8.20;;;;;;;28.09;48.28;100725.54;93824;1195;81548;-75
2021/10/03 09:04:34;;;;;;;13.80;8.90;;;;;;;27.89;47.18;100724.84;93845;1196;100185;-80
2021/10/03 09:07:06;;;;;;;10.20;8.50;;;;;;;27.91;48.18;100724.76;93829;1196;88294;-73
2021/10/03 09:09:10;;;;;;;9.40;8.40;;;;;;;27.81;47.20;100718.64;93834;1196;94387;-70
2021/10/03 09:11:16;;;;;;;10.10;8.10;;;;;;;27.82;47.13;100718.85;93708;1196;78319;-86
2021/10/03 09:13:42;;;;;;;9.60;8.60;;;;;;;27.85;46.93;100715.72;93838;1196;81247;-79
2021/10/03 09:15:46;;;;;;;10.00;9.00;;;;;;;28.01;46.36;100717.45;93759;1196;99401;-74
2021/10/03 09:17:53;;;;;;;10.30;8.50;;;;;;;28.03;46.46;100714.83;93716;1196;88228;-75
2021/10/03 09:20:15;;;;;;;8.70;7.80;;;;;;;27.94;45.60;100720.39;93707;1196;93901;-72
2021/10/03 09:22:19;;;;;;;10.60;8.30;;;;;;;27.77;45.48;100711.48;93673;1196;79364;-72
2021/10/03 09:24:26;;;;;;;10.10;7.30;;;;;;;27.68;45.54;100710.42;93786;1196;81185;-71
2021/10/03 09:26:35;;;;;;;9.60;8.10;;;;;;;27.54;44.84;100709.12;93784;1196;98695;-73
2021/10/03 09:28:40;;;;;;;9.50;8.20;;;;;;;27.37;44.48;100709.29;93740;1196;86806;-64
2021/10/03 09:31:07;;;;;;;9.60;8.00;;;;;;;27.04;44.23;100706.13;93763;1196;93846;-64